Time;durP1;ratioP1;P1;durP2;ratioP2;P2;SDS_P1;SDS_P2;PMS_P1;PMS_P2;Temp;Humidity;BMP_temperature;BMP_pressure;BME280_temperature;BME280_humidity;BME280_pressure;Samples;Min_cycle;Max_cycle;Signal;HPM_P1;HPM_P2
2021/08/30 00:00:05;;;;;;;;;;;13.40;99.90;;;;;;8364866;28;20361;-64
2021/08/30 00:04:06;;;;;;;;;;;13.30;99.90;;;;;;8363883;28;19912;-64
2021/08/30 00:08:06;;;;;;;;;;;13.40;99.90;;;;;;8346133;28;20426;-64
2021/08/30 00:12:07;;;;;;;;;;;13.20;99.90;;;;;;8345837;28;20387;-64
2021/08/30 00:16:07;;;;;;;;;;;13.20;99.90;;;;;;8363802;28;19913;-64
2021/08/30 00:20:09;;;;;;;;;;;13.20;99.90;;;;;;8363925;28;19909;-64
2021/08/30 00:24:10;;;;;;;;;;;13.40;99.90;;;;;;8363585;28;19909;-64
2021/08/30 00:28:10;;;;;;;;;;;13.30;99.90;;;;;;8363387;28;20458;-64
2021/08/30 00:32:11;;;;;;;;;;;13.20;99.90;;;;;;8363342;28;19917;-64
2021/08/30 00:36:11;;;;;;;;;;;13.30;99.90;;;;;;8344077;28;20383;-64
2021/08/30 00:40:12;;;;;;;;;;;13.30;99.90;;;;;;8345383;28;20497;-64
2021/08/30 00:44:13;;;;;;;;;;;13.20;99.90;;;;;;8362955;28;20004;-64
2021/08/30 00:48:13;;;;;;;;;;;13.30;99.90;;;;;;8362673;28;19920;-64
2021/08/30 00:52:13;;;;;;;;;;;13.20;99.90;;;;;;8362803;28;19915;-64
2021/08/30 00:56:15;;;;;;;;;;;13.20;99.90;;;;;;8363084;28;19909;-63
2021/08/30 01:00:16;;;;;;;;;;;13.30;99.90;;;;;;8362707;28;20377;-64
2021/08/30 01:04:17;;;;;;;;;;;13.30;99.90;;;;;;8361852;28;19916;-64
2021/08/30 01:08:22;;;;;;;;;;;13.20;99.90;;;;;;8361893;28;19913;-64
2021/08/30 01:12:24;;;;;;;;;;;13.30;99.90;;;;;;8361968;28;19979;-65
2021/08/30 01:16:26;;;;;;;;;;;13.20;99.90;;;;;;8361685;28;20018;-64
2021/08/30 01:20:30;;;;;;;;;;;13.10;99.90;;;;;;8361887;28;20115;-63
2021/08/30 01:24:31;;;;;;;;;;;13.30;99.90;;;;;;8361574;28;19916;-64
2021/08/30 01:28:42;;;;;;;;;;;13.30;99.90;;;;;;8361662;28;20377;-64
2021/08/30 01:32:45;;;;;;;;;;;13.20;99.90;;;;;;8361322;28;20293;-64
2021/08/30 01:36:48;;;;;;;;;;;13.30;99.90;;;;;;8343047;28;19916;-63
2021/08/30 01:40:49;;;;;;;;;;;13.20;99.90;;;;;;8360804;28;19917;-64
2021/08/30 01:44:49;;;;;;;;;;;13.10;99.90;;;;;;8360886;28;19916;-64
2021/08/30 01:48:51;;;;;;;;;;;13.10;99.90;;;;;;8360842;28;20396;-64
2021/08/30 01:52:52;;;;;;;;;;;13.20;99.90;;;;;;8360671;28;19916;-64
2021/08/30 01:56:55;;;;;;;;;;;13.30;99.90;;;;;;8360501;28;19913;-64
2021/08/30 02:00:56;;;;;;;;;;;13.30;99.90;;;;;;8409556;23;19935;-68
2021/08/30 02:04:56;;;;;;;;;;;13.30;99.90;;;;;;8375401;28;19959;-68
2021/08/30 02:08:58;;;;;;;;;;;13.20;99.90;;;;;;8392845;28;20007;-68
2021/08/30 02:12:58;;;;;;;;;;;13.30;99.90;;;;;;8374931;28;19997;-68
2021/08/30 02:17:01;;;;;;;;;;;13.30;99.90;;;;;;8369419;28;19909;-68
2021/08/30 02:21:09;;;;;;;;;;;13.40;99.90;;;;;;8359993;28;19909;-68
2021/08/30 02:25:13;;;;;;;;;;;13.30;99.90;;;;;;8359954;28;20372;-69
2021/08/30 02:29:17;;;;;;;;;;;13.20;99.90;;;;;;8359740;28;20000;-69
2021/08/30 02:33:18;;;;;;;;;;;13.10;99.90;;;;;;8342059;28;19919;-68
2021/08/30 02:37:18;;;;;;;;;;;13.20;99.90;;;;;;8359804;28;19913;-69
2021/08/30 02:41:19;;;;;;;;;;;13.20;99.90;;;;;;8358939;28;19920;-69
2021/08/30 02:45:21;;;;;;;;;;;13.10;99.90;;;;;;8359635;28;19909;-68
2021/08/30 02:49:22;;;;;;;;;;;13.10;99.90;;;;;;8359763;28;19913;-68
2021/08/30 02:53:23;;;;;;;;;;;13.10;99.90;;;;;;8360271;28;19959;-68
2021/08/30 02:57:24;;;;;;;;;;;13.10;99.90;;;;;;8361251;28;19990;-68
2021/08/30 03:01:25;;;;;;;;;;;13.20;99.90;;;;;;8366126;28;20307;-68
2021/08/30 03:05:26;;;;;;;;;;;13.20;99.90;;;;;;8366093;28;19941;-68
2021/08/30 03:09:27;;;;;;;;;;;13.20;99.90;;;;;;8365467;28;19913;-68
2021/08/30 03:13:28;;;;;;;;;;;13.10;99.90;;;;;;8347984;28;19909;-68
2021/08/30 03:17:29;;;;;;;;;;;13.10;99.90;;;;;;8369119;28;19909;-68
2021/08/30 03:21:30;;;;;;;;;;;13.00;99.90;;;;;;8365460;28;19916;-68
2021/08/30 03:25:32;;;;;;;;;;;13.00;99.90;;;;;;8347316;28;19959;-68
2021/08/30 03:29:33;;;;;;;;;;;12.90;99.90;;;;;;8365210;28;19923;-68
2021/08/30 03:33:34;;;;;;;;;;;13.10;99.90;;;;;;8389803;28;19913;-68
2021/08/30 03:37:35;;;;;;;;;;;13.00;99.90;;;;;;8398254;28;19921;-68
2021/08/30 03:41:36;;;;;;;;;;;13.00;99.90;;;;;;8385040;28;20308;-68
2021/08/30 03:45:37;;;;;;;;;;;12.90;99.90;;;;;;8364643;28;19919;-69
2021/08/30 03:49:39;;;;;;;;;;;12.90;99.90;;;;;;8347744;28;19913;-68
2021/08/30 03:53:40;;;;;;;;;;;12.90;99.90;;;;;;8347542;28;19920;-68
2021/08/30 03:57:40;;;;;;;;;;;12.90;99.90;;;;;;8391215;28;19951;-68
2021/08/30 04:01:43;;;;;;;;;;;13.10;99.90;;;;;;8350346;28;20398;-68
2021/08/30 04:05:44;;;;;;;;;;;13.00;99.90;;;;;;8350574;28;20403;-68
2021/08/30 04:09:44;;;;;;;;;;;13.10;99.90;;;;;;8391454;28;19924;-68
2021/08/30 04:13:45;;;;;;;;;;;13.00;99.90;;;;;;8389708;28;19908;-68
2021/08/30 04:17:46;;;;;;;;;;;13.00;99.90;;;;;;8373621;28;20330;-68
2021/08/30 04:21:47;;;;;;;;;;;13.00;99.90;;;;;;8395240;28;19951;-68
2021/08/30 04:25:47;;;;;;;;;;;13.00;99.90;;;;;;8395578;28;19909;-69
2021/08/30 04:29:48;;;;;;;;;;;13.10;99.90;;;;;;8395690;28;20339;-68
2021/08/30 04:33:48;;;;;;;;;;;13.20;99.90;;;;;;8386551;28;19917;-68
2021/08/30 04:37:49;;;;;;;;;;;13.20;99.90;;;;;;8378462;28;20008;-68
2021/08/30 04:41:49;;;;;;;;;;;13.10;99.90;;;;;;8364810;28;19919;-68
2021/08/30 04:45:50;;;;;;;;;;;13.00;99.90;;;;;;8343461;28;20430;-68
2021/08/30 04:49:50;;;;;;;;;;;13.00;99.90;;;;;;8372855;28;19959;-68
2021/08/30 04:53:51;;;;;;;;;;;13.00;99.90;;;;;;8377854;28;19932;-68
2021/08/30 04:57:51;;;;;;;;;;;13.00;99.90;;;;;;8394099;28;20375;-68
2021/08/30 05:01:52;;;;;;;;;;;12.90;99.90;;;;;;8395260;28;19915;-68
2021/08/30 05:05:52;;;;;;;;;;;13.10;99.90;;;;;;8395202;28;19909;-68
2021/08/30 05:09:52;;;;;;;;;;;13.00;99.90;;;;;;8376491;28;19920;-67
2021/08/30 05:13:53;;;;;;;;;;;13.00;99.90;;;;;;8376843;28;19917;-67
2021/08/30 05:17:53;;;;;;;;;;;13.00;99.90;;;;;;8383054;28;19912;-68
2021/08/30 05:21:54;;;;;;;;;;;13.00;99.90;;;;;;8392199;28;19970;-67
2021/08/30 05:25:54;;;;;;;;;;;13.00;99.90;;;;;;8364963;28;19992;-68
2021/08/30 05:29:55;;;;;;;;;;;13.00;99.90;;;;;;8360590;28;19932;-67
2021/08/30 05:33:57;;;;;;;;;;;13.00;99.90;;;;;;8359993;28;19970;-68
2021/08/30 05:37:58;;;;;;;;;;;12.90;99.90;;;;;;8343273;28;19909;-68
2021/08/30 05:41:58;;;;;;;;;;;12.90;99.90;;;;;;8360721;28;19909;-68
2021/08/30 05:45:59;;;;;;;;;;;12.90;99.90;;;;;;8360817;28;20360;-68
2021/08/30 05:49:59;;;;;;;;;;;12.80;99.90;;;;;;8359057;28;19917;-68
2021/08/30 05:53:59;;;;;;;;;;;12.80;99.90;;;;;;8388869;28;19924;-68
2021/08/30 05:58:00;;;;;;;;;;;12.90;99.90;;;;;;8387586;28;19916;-68
2021/08/30 06:02:00;;;;;;;;;;;13.00;99.90;;;;;;8375231;28;20280;-68
2021/08/30 06:06:01;;;;;;;;;;;13.00;99.90;;;;;;8393265;28;20403;-68
2021/08/30 06:10:02;;;;;;;;;;;13.20;99.90;;;;;;8394233;28;19917;-68
2021/08/30 06:14:02;;;;;;;;;;;13.30;99.90;;;;;;8393502;28;19912;-68
2021/08/30 06:18:03;;;;;;;;;;;13.30;99.90;;;;;;8383857;28;19970;-68
2021/08/30 06:22:06;;;;;;;;;;;13.30;99.90;;;;;;8397686;28;20317;-68
2021/08/30 06:26:06;;;;;;;;;;;13.20;99.90;;;;;;8407505;28;19908;-68
2021/08/30 06:30:07;;;;;;;;;;;13.10;99.90;;;;;;8425419;28;20299;-68
2021/08/30 06:34:08;;;;;;;;;;;13.30;99.90;;;;;;8392199;28;19913;-68
2021/08/30 06:38:12;;;;;;;;;;;13.30;99.90;;;;;;8391603;28;19912;-68
2021/08/30 06:42:12;;;;;;;;;;;13.40;99.90;;;;;;8385935;28;19923;-68
2021/08/30 06:46:13;;;;;;;;;;;13.40;99.90;;;;;;8373752;28;19912;-68
2021/08/30 06:50:13;;;;;;;;;;;13.40;99.90;;;;;;8354340;28;19924;-68
2021/08/30 06:54:14;;;;;;;;;;;13.40;99.90;;;;;;8358890;28;19915;-68
2021/08/30 06:58:14;;;;;;;;;;;13.50;99.90;;;;;;8359138;28;19924;-68
2021/08/30 07:02:15;;;;;;;;;;;13.60;99.90;;;;;;8341201;28;19916;-68
2021/08/30 07:06:15;;;;;;;;;;;13.70;99.90;;;;;;8358202;28;19912;-68
2021/08/30 07:10:16;;;;;;;;;;;13.70;99.90;;;;;;8358760;28;19913;-68
2021/08/30 07:14:16;;;;;;;;;;;13.90;99.90;;;;;;8358203;28;19920;-68
2021/08/30 07:18:18;;;;;;;;;;;14.00;99.90;;;;;;8340481;28;19913;-68
2021/08/30 07:22:18;;;;;;;;;;;14.00;99.90;;;;;;8358912;28;20392;-68
2021/08/30 07:26:19;;;;;;;;;;;13.90;99.90;;;;;;8358197;28;20003;-67
2021/08/30 07:30:19;;;;;;;;;;;13.80;99.90;;;;;;8357317;28;19913;-67
2021/08/30 07:34:20;;;;;;;;;;;13.70;99.90;;;;;;8371679;28;19913;-67
2021/08/30 07:38:20;;;;;;;;;;;13.80;99.90;;;;;;8373559;28;20007;-68
2021/08/30 07:42:21;;;;;;;;;;;13.80;99.90;;;;;;8365013;28;19913;-68
2021/08/30 07:46:21;;;;;;;;;;;13.90;99.90;;;;;;8365083;28;20426;-68
2021/08/30 07:50:22;;;;;;;;;;;14.00;99.90;;;;;;8346466;28;20273;-63
2021/08/30 07:54:22;;;;;;;;;;;14.00;99.90;;;;;;8366998;28;19931;-64
2021/08/30 07:58:23;;;;;;;;;;;14.00;99.90;;;;;;8412190;22;19924;-60
2021/08/30 08:02:23;;;;;;;;;;;14.10;99.90;;;;;;8396441;28;19917;-61
2021/08/30 08:06:24;;;;;;;;;;;14.30;99.90;;;;;;8396542;28;19913;-63
2021/08/30 08:10:24;;;;;;;;;;;14.30;99.90;;;;;;8375525;28;19917;-63
2021/08/30 08:14:25;;;;;;;;;;;14.30;99.90;;;;;;8362222;28;19979;-63
2021/08/30 08:18:25;;;;;;;;;;;14.40;99.90;;;;;;8363151;28;20499;-63
2021/08/30 08:22:27;;;;;;;;;;;14.50;99.90;;;;;;8362608;28;19908;-65
2021/08/30 08:26:27;;;;;;;;;;;14.70;99.90;;;;;;8362140;28;19913;-63
2021/08/30 08:30:28;;;;;;;;;;;14.90;99.90;;;;;;8344814;28;20000;-63
2021/08/30 08:34:29;;;;;;;;;;;15.40;99.90;;;;;;8362335;28;19915;-64
2021/08/30 08:38:29;;;;;;;;;;;15.80;99.90;;;;;;8362278;28;20003;-64
2021/08/30 08:42:29;;;;;;;;;;;15.80;99.90;;;;;;8359392;28;19917;-64
2021/08/30 08:46:30;;;;;;;;;;;16.00;99.90;;;;;;8361772;28;19912;-64
2021/08/30 08:50:31;;;;;;;;;;;16.20;99.90;;;;;;8361787;28;19912;-64
2021/08/30 08:54:31;;;;;;;;;;;16.50;99.90;;;;;;8360793;28;19916;-64
2021/08/30 08:58:32;;;;;;;;;;;17.00;99.90;;;;;;8360012;28;19920;-64
2021/08/30 09:02:34;;;;;;;;;;;17.20;99.90;;;;;;8338721;28;19964;-64
2021/08/30 09:06:47;;;;;;;;;;;17.10;99.90;;;;;;8329419;28;19948;-64
2021/08/30 09:10:49;;;;;;;;;;;16.90;99.90;;;;;;8329197;28;19971;-64
2021/08/30 09:14:49;;;;;;;;;;;16.60;99.90;;;;;;8328753;28;20389;-65
2021/08/30 09:18:50;;;;;;;;;;;17.00;99.90;;;;;;8329996;28;19988;-64
2021/08/30 09:22:51;;;;;;;;;;;17.50;99.90;;;;;;8359131;28;19913;-64
2021/08/30 09:26:56;;;;;;;;;;;17.70;99.90;;;;;;8358239;28;19960;-64
2021/08/30 09:30:57;;;;;;;;;;;17.20;99.90;;;;;;8359987;28;20451;-64
2021/08/30 09:34:58;;;;;;;;;;;17.80;99.90;;;;;;8360257;28;19912;-64
2021/08/30 09:38:59;;;;;;;;;;;17.70;99.90;;;;;;8360955;28;19913;-64
2021/08/30 09:43:00;;;;;;;;;;;17.20;99.90;;;;;;8359954;28;19920;-64
2021/08/30 09:47:07;;;;;;;;;;;16.90;99.90;;;;;;8360028;28;20011;-65
2021/08/30 09:51:07;;;;;;;;;;;16.80;99.90;;;;;;8359189;28;19920;-64
2021/08/30 09:55:08;;;;;;;;;;;16.20;99.90;;;;;;8359540;28;20000;-64
2021/08/30 09:59:08;;;;;;;;;;;16.20;99.90;;;;;;8360051;28;20292;-65
2021/08/30 10:03:10;;;;;;;;;;;16.40;99.90;;;;;;8342041;28;19909;-64
2021/08/30 10:07:11;;;;;;;;;;;16.40;99.90;;;;;;8359974;28;19927;-65
2021/08/30 10:11:13;;;;;;;;;;;16.80;99.90;;;;;;8359219;28;20376;-64
2021/08/30 10:15:16;;;;;;;;;;;17.00;99.90;;;;;;8358311;28;19996;-64
2021/08/30 10:19:30;;;;;;;;;;;17.00;99.90;;;;;;8359556;28;20588;-64
2021/08/30 10:23:35;;;;;;;;;;;17.20;99.90;;;;;;8359668;28;19970;-64
2021/08/30 10:27:37;;;;;;;;;;;17.30;99.90;;;;;;8359370;28;20297;-64
2021/08/30 10:31:50;;;;;;;;;;;17.40;99.90;;;;;;8358345;28;19912;-64
2021/08/30 10:35:51;;;;;;;;;;;17.20;99.90;;;;;;8358163;28;19921;-64
2021/08/30 10:39:52;;;;;;;;;;;17.20;99.90;;;;;;8357975;28;19959;-64
2021/08/30 10:44:02;;;;;;;;;;;17.70;99.90;;;;;;8358120;28;20446;-64
2021/08/30 10:48:04;;;;;;;;;;;18.80;99.90;;;;;;8354590;28;19964;-64
2021/08/30 10:52:12;;;;;;;;;;;19.10;99.90;;;;;;8356819;28;19994;-64
2021/08/30 10:56:22;;;;;;;;;;;18.20;99.90;;;;;;8357776;28;19921;-64
2021/08/30 11:00:32;;;;;;;;;;;17.00;99.90;;;;;;8357820;28;19917;-64
2021/08/30 11:04:32;;;;;;;;;;;16.00;99.90;;;;;;8357800;28;19916;-63
2021/08/30 11:08:38;;;;;;;;;;;15.70;99.90;;;;;;8339755;28;19952;-64
2021/08/30 11:12:42;;;;;;;;;;;15.90;99.90;;;;;;8355652;28;20034;-64
2021/08/30 11:16:42;;;;;;;;;;;16.30;99.90;;;;;;8357853;28;19963;-64
2021/08/30 11:20:49;;;;;;;;;;;19.70;99.90;;;;;;8363519;28;20559;-64
2021/08/30 11:24:49;;;;;;;;;;;21.90;99.90;;;;;;8364304;28;20464;-64
2021/08/30 11:28:54;;;;;;;;;;;24.40;99.90;;;;;;8364397;28;19924;-65
2021/08/30 11:32:54;;;;;;;;;;;25.50;99.90;;;;;;8364107;28;20332;-64
2021/08/30 11:36:55;;;;;;;;;;;24.40;99.90;;;;;;8363110;28;19913;-63
2021/08/30 11:41:04;;;;;;;;;;;20.20;99.90;;;;;;8362579;28;19909;-64
2021/08/30 11:45:06;;;;;;;;;;;18.30;99.90;;;;;;8363015;28;19920;-63
2021/08/30 11:49:07;;;;;;;;;;;17.20;99.90;;;;;;8363776;28;20300;-64
2021/08/30 11:53:11;;;;;;;;;;;17.20;99.90;;;;;;8363624;28;19920;-64
2021/08/30 11:57:13;;;;;;;;;;;17.40;99.90;;;;;;8360018;28;19983;-65
2021/08/30 12:01:17;;;;;;;;;;;17.30;99.90;;;;;;8362841;28;19935;-64
2021/08/30 12:05:17;;;;;;;;;;;17.60;99.90;;;;;;8362829;28;19959;-65
2021/08/30 12:09:17;;;;;;;;;;;17.70;99.90;;;;;;8363114;28;19913;-64
2021/08/30 12:17:25;;;;;;;;;;;16.90;99.90;;;;;;8361683;28;19912;-64
2021/08/30 12:21:33;;;;;;;;;;;17.10;99.90;;;;;;8363045;28;20103;-64
2021/08/30 12:25:38;;;;;;;;;;;18.20;99.90;;;;;;8362590;28;20015;-65
2021/08/30 12:29:39;;;;;;;;;;;20.10;99.90;;;;;;8362294;28;19991;-64
2021/08/30 12:33:39;;;;;;;;;;;20.80;99.90;;;;;;8363056;28;19913;-64
2021/08/30 12:37:40;;;;;;;;;;;20.30;99.90;;;;;;8361881;28;19909;-64
2021/08/30 12:41:40;;;;;;;;;;;19.30;99.90;;;;;;8362344;28;20440;-64
2021/08/30 12:45:41;;;;;;;;;;;17.90;99.90;;;;;;8361985;28;20327;-64
2021/08/30 12:49:41;;;;;;;;;;;16.60;99.90;;;;;;8362444;28;19916;-63
2021/08/30 12:53:42;;;;;;;;;;;16.20;99.90;;;;;;8362638;28;19933;-64
2021/08/30 12:57:42;;;;;;;;;;;16.10;99.90;;;;;;8362110;28;19920;-64
2021/08/30 13:01:43;;;;;;;;;;;16.20;99.90;;;;;;8361937;28;19920;-64
2021/08/30 13:05:43;;;;;;;;;;;16.30;99.90;;;;;;8343091;28;19917;-64
2021/08/30 13:09:44;;;;;;;;;;;16.60;99.90;;;;;;8361710;28;19919;-64
2021/08/30 13:13:47;;;;;;;;;;;16.90;99.90;;;;;;8361427;28;19912;-64
2021/08/30 13:17:48;;;;;;;;;;;17.40;99.90;;;;;;8361166;28;19913;-64
2021/08/30 13:21:48;;;;;;;;;;;17.80;99.90;;;;;;8361292;28;20008;-64
2021/08/30 13:25:49;;;;;;;;;;;18.40;99.90;;;;;;8360316;28;20006;-64
2021/08/30 13:29:50;;;;;;;;;;;18.00;99.90;;;;;;8361026;28;19917;-64
2021/08/30 13:33:50;;;;;;;;;;;17.50;99.90;;;;;;8360689;28;19913;-64
2021/08/30 13:37:53;;;;;;;;;;;17.00;99.90;;;;;;8360195;28;20288;-63
2021/08/30 13:41:54;;;;;;;;;;;16.90;99.90;;;;;;8360014;28;19993;-64
2021/08/30 13:45:54;;;;;;;;;;;16.70;99.90;;;;;;8359728;28;19913;-64
2021/08/30 13:49:55;;;;;;;;;;;16.60;99.90;;;;;;8359701;28;19966;-64
2021/08/30 13:53:56;;;;;;;;;;;16.80;99.90;;;;;;8360318;28;20331;-64
2021/08/30 13:57:57;;;;;;;;;;;16.80;99.90;;;;;;8359941;28;20467;-64
2021/08/30 14:01:57;;;;;;;;;;;16.70;99.90;;;;;;8359630;28;19917;-64
2021/08/30 14:05:58;;;;;;;;;;;17.40;99.90;;;;;;8354015;28;19908;-64
2021/08/30 14:09:58;;;;;;;;;;;20.10;99.90;;;;;;8359127;28;19923;-64
2021/08/30 14:13:59;;;;;;;;;;;22.00;99.90;;;;;;8359400;28;19915;-64
2021/08/30 14:17:59;;;;;;;;;;;24.50;99.90;;;;;;8359127;28;20513;-65
2021/08/30 14:22:00;;;;;;;;;;;26.70;99.90;;;;;;8356743;28;19919;-65
2021/08/30 14:26:01;;;;;;;;;;;28.20;99.90;;;;;;8358333;28;20029;-65
2021/08/30 14:30:03;;;;;;;;;;;30.60;99.90;;;;;;8358355;28;20312;-66
2021/08/30 14:34:03;;;;;;;;;;;34.00;90.90;;;;;;8358247;28;19913;-61
2021/08/30 14:38:04;;;;;;;;;;;33.70;75.90;;;;;;8356514;28;19921;-59
2021/08/30 14:42:05;;;;;;;;;;;33.10;77.00;;;;;;8356956;28;20004;-58
2021/08/30 14:46:07;;;;;;;;;;;34.40;78.10;;;;;;8357600;28;20140;-60
2021/08/30 14:50:08;;;;;;;;;;;33.90;70.90;;;;;;8356036;28;19920;-60
2021/08/30 14:54:09;;;;;;;;;;;32.40;74.40;;;;;;8356863;28;19913;-59
2021/08/30 14:58:09;;;;;;;;;;;29.80;82.20;;;;;;8357219;28;19917;-60
2021/08/30 15:02:10;;;;;;;;;;;31.00;79.70;;;;;;8339593;28;19917;-60
2021/08/30 15:06:10;;;;;;;;;;;29.90;80.30;;;;;;8358389;28;19912;-60
2021/08/30 15:10:11;;;;;;;;;;;25.50;94.10;;;;;;8358255;28;19982;-58
2021/08/30 15:14:11;;;;;;;;;;;23.20;99.90;;;;;;8358081;28;19912;-58
2021/08/30 15:18:13;;;;;;;;;;;21.20;99.90;;;;;;8356342;28;19912;-59
2021/08/30 15:22:14;;;;;;;;;;;20.50;99.90;;;;;;8353508;28;20311;-58
2021/08/30 15:26:14;;;;;;;;;;;19.30;99.90;;;;;;8358323;28;19921;-58
2021/08/30 15:30:15;;;;;;;;;;;19.00;99.90;;;;;;8358262;28;19943;-59
2021/08/30 15:34:16;;;;;;;;;;;19.00;99.90;;;;;;8353588;28;20284;-60
2021/08/30 15:38:16;;;;;;;;;;;19.10;99.90;;;;;;8356859;28;20328;-59
2021/08/30 15:42:17;;;;;;;;;;;19.70;99.90;;;;;;8357567;28;20399;-60
2021/08/30 15:46:17;;;;;;;;;;;20.50;99.90;;;;;;8356577;28;19917;-59
2021/08/30 15:50:21;;;;;;;;;;;22.30;99.90;;;;;;8357337;28;19921;-58
2021/08/30 15:54:22;;;;;;;;;;;24.60;99.90;;;;;;8354360;28;20388;-59
2021/08/30 15:58:22;;;;;;;;;;;24.60;99.90;;;;;;8355543;28;19913;-59
2021/08/30 16:02:23;;;;;;;;;;;24.50;99.90;;;;;;8357411;28;20332;-58
2021/08/30 16:06:24;;;;;;;;;;;23.70;99.90;;;;;;8360018;28;19935;-60
2021/08/30 16:10:24;;;;;;;;;;;22.30;99.90;;;;;;8361873;28;19948;-59
2021/08/30 16:14:25;;;;;;;;;;;21.40;99.90;;;;;;8360462;28;19971;-59
2021/08/30 16:18:26;;;;;;;;;;;21.10;99.90;;;;;;8357805;28;19913;-61
2021/08/30 16:22:27;;;;;;;;;;;21.60;99.90;;;;;;8362869;28;19916;-60
2021/08/30 16:26:28;;;;;;;;;;;21.30;99.90;;;;;;8361337;28;19917;-60
2021/08/30 16:30:29;;;;;;;;;;;20.60;99.90;;;;;;8342467;28;19917;-60
2021/08/30 16:34:29;;;;;;;;;;;19.90;99.90;;;;;;8362135;28;19916;-60
2021/08/30 16:38:30;;;;;;;;;;;19.40;99.90;;;;;;8362595;28;20178;-60
2021/08/30 16:42:30;;;;;;;;;;;19.10;99.90;;;;;;8362663;28;19913;-60
2021/08/30 16:46:31;;;;;;;;;;;18.50;99.90;;;;;;8344365;28;20014;-60
2021/08/30 16:50:32;;;;;;;;;;;18.50;99.90;;;;;;8363378;28;20089;-59
2021/08/30 16:54:33;;;;;;;;;;;18.70;99.90;;;;;;8357161;28;19917;-60
2021/08/30 16:58:33;;;;;;;;;;;18.50;99.90;;;;;;8360329;28;19913;-60
2021/08/30 17:02:34;;;;;;;;;;;18.20;99.90;;;;;;8358495;28;19920;-59
2021/08/30 17:06:34;;;;;;;;;;;18.10;99.90;;;;;;8356825;28;20290;-58
2021/08/30 17:10:35;;;;;;;;;;;17.90;99.90;;;;;;8384117;28;19927;-59
2021/08/30 17:14:35;;;;;;;;;;;17.60;99.90;;;;;;8381050;28;19962;-60
2021/08/30 17:18:36;;;;;;;;;;;17.50;99.90;;;;;;8355006;28;20396;-58
2021/08/30 17:22:37;;;;;;;;;;;17.30;99.90;;;;;;8357583;28;19913;-58
2021/08/30 17:26:41;;;;;;;;;;;17.40;99.90;;;;;;8356328;28;19916;-60
2021/08/30 17:30:41;;;;;;;;;;;17.60;99.90;;;;;;8355792;28;19932;-58
2021/08/30 17:34:42;;;;;;;;;;;17.50;99.90;;;;;;8356206;28;20392;-57
2021/08/30 17:38:42;;;;;;;;;;;17.40;99.90;;;;;;8356000;28;19924;-58
2021/08/30 17:42:43;;;;;;;;;;;17.10;99.90;;;;;;8356317;28;19920;-58
2021/08/30 17:46:43;;;;;;;;;;;16.90;99.90;;;;;;8356448;28;19987;-60
2021/08/30 17:50:44;;;;;;;;;;;16.80;99.90;;;;;;8355633;28;19917;-59
2021/08/30 17:54:45;;;;;;;;;;;16.40;99.90;;;;;;8353367;28;20503;-60
2021/08/30 17:58:45;;;;;;;;;;;16.30;99.90;;;;;;8335864;28;19921;-58
2021/08/30 18:02:46;;;;;;;;;;;16.10;99.90;;;;;;8354286;28;19917;-64
2021/08/30 18:06:49;;;;;;;;;;;16.20;99.90;;;;;;8335624;28;20018;-63
2021/08/30 18:10:50;;;;;;;;;;;16.00;99.90;;;;;;8331622;28;20011;-64
2021/08/30 18:14:50;;;;;;;;;;;16.00;99.90;;;;;;8346609;28;19917;-63
2021/08/30 18:18:51;;;;;;;;;;;15.90;99.90;;;;;;8344442;28;19970;-63
2021/08/30 18:22:52;;;;;;;;;;;15.70;99.90;;;;;;8348409;28;19920;-64
2021/08/30 18:26:54;;;;;;;;;;;15.70;99.90;;;;;;8339483;28;19913;-63
2021/08/30 18:30:54;;;;;;;;;;;15.60;99.90;;;;;;8346746;28;19921;-63
2021/08/30 18:34:55;;;;;;;;;;;15.50;99.90;;;;;;8348322;28;20060;-63
2021/08/30 18:38:55;;;;;;;;;;;15.60;99.90;;;;;;8353674;28;19991;-63
2021/08/30 18:42:56;;;;;;;;;;;15.60;99.90;;;;;;8354788;28;19919;-63
2021/08/30 18:46:57;;;;;;;;;;;15.50;99.90;;;;;;8356475;28;20543;-63
2021/08/30 18:50:58;;;;;;;;;;;15.20;99.90;;;;;;8354997;28;20007;-63
2021/08/30 18:54:59;;;;;;;;;;;15.20;99.90;;;;;;8350857;28;19943;-63
2021/08/30 18:59:00;;;;;;;;;;;15.20;99.90;;;;;;8351193;28;19927;-63
2021/08/30 19:03:03;;;;;;;;;;;15.00;99.90;;;;;;8350147;28;19916;-63
2021/08/30 19:07:04;;;;;;;;;;;14.90;99.90;;;;;;8347956;28;20292;-62
2021/08/30 19:11:05;;;;;;;;;;;14.90;99.90;;;;;;8345747;28;20396;-63
2021/08/30 19:15:06;;;;;;;;;;;14.90;99.90;;;;;;8345168;28;19917;-63
2021/08/30 19:19:08;;;;;;;;;;;15.00;99.90;;;;;;8346758;28;19916;-63
2021/08/30 19:23:08;;;;;;;;;;;14.90;99.90;;;;;;8330402;28;19921;-63
2021/08/30 19:27:09;;;;;;;;;;;14.80;99.90;;;;;;8349765;28;19917;-63
2021/08/30 19:31:09;;;;;;;;;;;14.80;99.90;;;;;;8354007;28;19948;-63
2021/08/30 19:35:10;;;;;;;;;;;14.80;99.90;;;;;;8342616;28;19913;-63
2021/08/30 19:39:11;;;;;;;;;;;14.70;99.90;;;;;;8351732;28;20447;-63
2021/08/30 19:43:13;;;;;;;;;;;14.70;99.90;;;;;;8358869;28;19916;-63
2021/08/30 19:47:14;;;;;;;;;;;14.60;99.90;;;;;;8361681;28;20058;-63
2021/08/30 19:51:14;;;;;;;;;;;14.60;99.90;;;;;;8341223;28;19917;-63
2021/08/30 19:55:15;;;;;;;;;;;14.60;99.90;;;;;;8336323;28;19971;-63
2021/08/30 19:59:16;;;;;;;;;;;14.40;99.90;;;;;;8357727;28;19924;-63
2021/08/30 20:03:17;;;;;;;;;;;14.40;99.90;;;;;;8346895;28;19917;-63
2021/08/30 20:07:17;;;;;;;;;;;14.50;99.90;;;;;;8358180;28;20389;-63
2021/08/30 20:11:19;;;;;;;;;;;14.40;99.90;;;;;;8340388;28;19923;-63
2021/08/30 20:15:19;;;;;;;;;;;14.30;99.90;;;;;;8420730;23;19990;-70
2021/08/30 20:19:20;;;;;;;;;;;14.20;99.90;;;;;;8386562;28;20281;-70
2021/08/30 20:23:20;;;;;;;;;;;14.30;99.90;;;;;;8361420;28;19921;-70
2021/08/30 20:27:21;;;;;;;;;;;14.20;99.90;;;;;;8375669;28;19912;-70
2021/08/30 20:31:21;;;;;;;;;;;14.20;99.90;;;;;;8375772;28;20016;-70
2021/08/30 20:35:22;;;;;;;;;;;14.00;99.90;;;;;;8364981;28;19917;-70
2021/08/30 20:39:22;;;;;;;;;;;14.00;99.90;;;;;;8344328;28;20369;-70
2021/08/30 20:43:23;;;;;;;;;;;14.20;99.90;;;;;;8360498;28;20002;-70
2021/08/30 20:47:23;;;;;;;;;;;14.10;99.90;;;;;;8367936;28;19909;-70
2021/08/30 20:51:24;;;;;;;;;;;13.90;99.90;;;;;;8375786;28;19920;-70
2021/08/30 20:55:25;;;;;;;;;;;14.00;99.90;;;;;;8383429;28;19966;-70
2021/08/30 20:59:25;;;;;;;;;;;13.90;99.90;;;;;;8373939;28;19935;-70
2021/08/30 21:03:26;;;;;;;;;;;13.70;99.90;;;;;;8357697;28;19920;-70
2021/08/30 21:07:26;;;;;;;;;;;13.70;99.90;;;;;;8370531;28;19913;-70
2021/08/30 21:11:27;;;;;;;;;;;13.70;99.90;;;;;;8360625;28;19916;-70
2021/08/30 21:15:29;;;;;;;;;;;13.70;99.90;;;;;;8360296;28;20000;-70
2021/08/30 21:19:29;;;;;;;;;;;13.80;99.90;;;;;;8382192;28;20007;-70
2021/08/30 21:23:30;;;;;;;;;;;13.90;99.90;;;;;;8376741;28;20391;-70
2021/08/30 21:27:30;;;;;;;;;;;13.90;99.90;;;;;;8394387;28;20467;-70
2021/08/30 21:31:31;;;;;;;;;;;13.80;99.90;;;;;;8379697;28;20296;-70
2021/08/30 21:35:31;;;;;;;;;;;14.00;99.90;;;;;;8377239;28;19909;-70
2021/08/30 21:39:32;;;;;;;;;;;14.10;99.90;;;;;;8374078;28;20388;-69
2021/08/30 21:43:33;;;;;;;;;;;13.90;99.90;;;;;;8360084;28;19915;-70
2021/08/30 21:47:33;;;;;;;;;;;13.70;99.90;;;;;;8359249;28;20292;-70
2021/08/30 21:51:34;;;;;;;;;;;13.60;99.90;;;;;;8360252;28;20320;-70
2021/08/30 21:55:34;;;;;;;;;;;13.60;99.90;;;;;;8359615;28;20494;-70
2021/08/30 21:59:35;;;;;;;;;;;13.70;99.90;;;;;;8342095;28;19922;-70
2021/08/30 22:03:35;;;;;;;;;;;13.70;99.90;;;;;;8357548;28;19948;-70
2021/08/30 22:07:35;;;;;;;;;;;13.70;99.90;;;;;;8357397;28;19959;-70
2021/08/30 22:11:36;;;;;;;;;;;13.60;99.90;;;;;;8357537;28;19912;-70
2021/08/30 22:15:36;;;;;;;;;;;13.70;99.90;;;;;;8357917;28;19952;-70
2021/08/30 22:19:37;;;;;;;;;;;13.80;99.90;;;;;;8359271;28;19909;-70
2021/08/30 22:23:37;;;;;;;;;;;13.70;99.90;;;;;;8341855;28;20066;-70
2021/08/30 22:27:38;;;;;;;;;;;13.70;99.90;;;;;;8359439;28;19987;-70
2021/08/30 22:31:39;;;;;;;;;;;13.80;99.90;;;;;;8359655;28;20292;-70
2021/08/30 22:35:39;;;;;;;;;;;13.80;99.90;;;;;;8359629;28;20023;-70
2021/08/30 22:39:40;;;;;;;;;;;13.70;99.90;;;;;;8341760;28;20364;-70
2021/08/30 22:43:40;;;;;;;;;;;13.60;99.90;;;;;;8341615;28;19916;-70
2021/08/30 22:47:41;;;;;;;;;;;13.70;99.90;;;;;;8359063;28;19908;-70
2021/08/30 22:51:41;;;;;;;;;;;13.70;99.90;;;;;;8359466;28;19909;-70
2021/08/30 22:55:42;;;;;;;;;;;13.60;99.90;;;;;;8359267;28;19947;-70
2021/08/30 22:59:42;;;;;;;;;;;13.80;99.90;;;;;;8359123;28;19913;-70
2021/08/30 23:03:43;;;;;;;;;;;13.80;99.90;;;;;;8359039;28;19913;-70
2021/08/30 23:07:43;;;;;;;;;;;13.70;99.90;;;;;;8358602;28;19909;-70
2021/08/30 23:11:44;;;;;;;;;;;13.60;99.90;;;;;;8358874;28;19909;-70
2021/08/30 23:15:44;;;;;;;;;;;13.50;99.90;;;;;;8362654;28;19931;-70
2021/08/30 23:19:45;;;;;;;;;;;13.50;99.90;;;;;;8365487;28;19913;-70
2021/08/30 23:23:45;;;;;;;;;;;13.50;99.90;;;;;;8365334;28;19908;-70